Aviation Digital Data Service (ADDS)

Output produced by METARs form (0335 UTC 06 December 2019)
found at http://www.aviationweather.gov/metar/data/
 
METAR text: KGYI 060315Z AUTO 17011KT 10SM SCT110 17/14 A2989 RMK AO2 T01670143
Conditions at: KGYI (SHERMAN/DENISON , TX, US) observed 0315 UTC 06 December 2019
Temperature: 16.7°C (62°F)
Dewpoint: 14.3°C (58°F) [RH = 86%]
Pressure (altimeter): 29.89 inches Hg (1012.3 mb)
Winds: from the S (170 degrees) at 13 MPH (11 knots; 5.7 m/s)
Visibility: 10 or more miles (16+ km)
Ceiling: at least 12,000 feet AGL
Clouds: scattered clouds at 11000 feet AGL
Weather: automated observation with no human augmentation;
there may or may not be significant weather present at this time